createdAt,value
2022-11-24T00:01:07.117Z,706.25
2022-11-24T00:03:39.039Z,702.42
2022-11-24T00:06:15.940Z,711.15
2022-11-24T00:08:49.335Z,704.90
2022-11-24T00:11:23.589Z,704.97
2022-11-24T00:13:55.502Z,708.72
2022-11-24T00:16:29.440Z,709.42
2022-11-24T00:19:02.902Z,713.75
2022-11-24T00:21:37.249Z,709.25
2022-11-24T00:24:09.475Z,709.65
2022-11-24T00:26:41.294Z,714.67
2022-11-24T00:29:22.410Z,717.67
2022-11-24T00:31:54.329Z,708.13
2022-11-24T00:34:25.843Z,710.10
2022-11-24T00:39:31.115Z,706.17
2022-11-24T00:42:02.745Z,708.03
2022-11-24T00:44:34.505Z,710.13
2022-11-24T00:47:06.476Z,706.17
2022-11-24T00:52:11.923Z,706.25
2022-11-24T00:54:43.637Z,708.00
2022-11-24T00:59:46.163Z,707.65
2022-11-24T01:02:17.852Z,707.80
2022-11-24T01:04:49.318Z,706.55
2022-11-24T01:07:23.580Z,705.13
2022-11-24T01:09:55.174Z,712.42
2022-11-24T01:12:26.840Z,710.53
2022-11-24T01:14:58.274Z,707.17
2022-11-24T01:20:00.887Z,702.65
2022-11-24T01:25:06.569Z,706.60
2022-11-24T01:27:38.808Z,692.45
2022-11-24T01:35:13.466Z,705.40
2022-11-24T01:37:47.758Z,687.60
2022-11-24T01:40:19.387Z,704.03
2022-11-24T01:42:52.753Z,703.03
2022-11-24T01:45:41.280Z,706.85
2022-11-24T01:48:24.471Z,708.55
2022-11-24T01:51:06.914Z,706.20
2022-11-24T01:53:44.158Z,707.83
2022-11-24T01:56:17.005Z,710.00
2022-11-24T01:58:49.787Z,683.60
2022-11-24T02:01:21.307Z,704.63
2022-11-24T02:03:54.498Z,704.58
2022-11-24T02:06:29.592Z,702.38
2022-11-24T02:09:10.018Z,706.15
2022-11-24T02:11:43.442Z,704.75
2022-11-24T02:14:19.079Z,703.47
2022-11-24T02:16:53.856Z,704.22
2022-11-24T02:19:35.286Z,707.00
2022-11-24T02:22:07.512Z,701.05
2022-11-24T02:24:49.771Z,708.15
2022-11-24T02:27:23.941Z,705.92
2022-11-24T02:29:56.267Z,709.08
2022-11-24T02:32:27.727Z,705.85
2022-11-24T02:35:04.855Z,709.90
2022-11-24T02:37:36.332Z,702.05
2022-11-24T02:42:47.238Z,700.50
2022-11-24T02:45:20.162Z,678.60
2022-11-24T02:47:51.518Z,707.45
2022-11-24T02:52:54.295Z,705.05
2022-11-24T02:58:00.058Z,701.47
2022-11-24T03:00:31.683Z,692.60
2022-11-24T03:03:03.256Z,703.97
2022-11-24T03:05:34.917Z,691.58
2022-11-24T03:08:06.351Z,707.92
2022-11-24T03:13:11.681Z,709.42
2022-11-24T03:15:43.598Z,703.83
2022-11-24T03:18:14.879Z,703.58
2022-11-24T03:20:46.748Z,705.42
2022-11-24T03:25:49.523Z,702.67
2022-11-24T03:28:23.499Z,701.05
2022-11-24T03:30:55.332Z,706.08
2022-11-24T03:33:26.724Z,702.03
2022-11-24T03:35:58.704Z,707.83
2022-11-24T03:38:30.508Z,708.15
2022-11-24T03:41:02.186Z,707.08
2022-11-24T03:43:41.946Z,702.63
2022-11-24T03:46:15.703Z,706.08
2022-11-24T03:48:47.121Z,706.28
2022-11-24T03:53:49.753Z,703.20
2022-11-24T03:58:54.915Z,702.10
2022-11-24T04:01:26.678Z,702.67
2022-11-24T04:03:58.008Z,704.22
2022-11-24T04:06:30.018Z,703.03
2022-11-24T04:09:02.700Z,704.05
2022-11-24T04:11:47.095Z,705.53
2022-11-24T04:14:21.391Z,703.40
2022-11-24T04:16:53.119Z,710.63
2022-11-24T04:19:24.484Z,707.35
2022-11-24T04:24:27.144Z,704.70
2022-11-24T04:29:32.331Z,700.25
2022-11-24T04:32:04.008Z,700.85
2022-11-24T04:34:35.850Z,703.00
2022-11-24T04:37:08.063Z,701.47
2022-11-24T04:39:39.450Z,697.88
2022-11-24T04:42:11.640Z,700.47
2022-11-24T04:47:20.034Z,701.50
2022-11-24T04:49:51.995Z,705.25
2022-11-24T04:52:25.285Z,698.97
2022-11-24T04:54:56.716Z,703.58
2022-11-24T05:00:02.974Z,700.53
2022-11-24T05:02:34.838Z,702.53
2022-11-24T05:05:06.432Z,701.17
2022-11-24T05:10:22.721Z,691.25
2022-11-24T05:12:59.670Z,704.28
2022-11-24T05:15:33.561Z,706.85
2022-11-24T05:18:08.854Z,703.70
2022-11-24T05:20:40.637Z,700.45
2022-11-24T05:23:12.356Z,705.20
2022-11-24T05:25:47.589Z,705.08
2022-11-24T05:28:20.166Z,701.83
2022-11-24T05:30:54.258Z,704.22
2022-11-24T05:33:28.727Z,702.60
2022-11-24T05:36:04.186Z,710.83
2022-11-24T05:38:36.466Z,701.78
2022-11-24T05:43:39.938Z,702.88
2022-11-24T05:46:13.829Z,706.60
2022-11-24T05:48:45.406Z,703.92
2022-11-24T05:51:16.848Z,708.80
2022-11-24T05:56:19.503Z,708.15
2022-11-24T05:58:51.018Z,700.78
2022-11-24T06:01:24.813Z,702.90
2022-11-24T06:03:56.329Z,705.08
2022-11-24T06:06:27.589Z,706.53
2022-11-24T06:08:59.079Z,703.88
2022-11-24T06:11:30.303Z,702.13
2022-11-24T06:14:03.832Z,702.92
2022-11-24T06:16:40.794Z,705.33
2022-11-24T06:19:13.508Z,700.80
2022-11-24T06:21:44.642Z,700.55
2022-11-24T06:24:16.510Z,705.13
2022-11-24T06:26:47.735Z,706.38
2022-11-24T06:29:19.423Z,700.33
2022-11-24T06:31:53.289Z,701.42
2022-11-24T06:34:24.848Z,701.95
2022-11-24T06:36:56.151Z,708.85
2022-11-24T06:39:28.153Z,708.08
2022-11-24T06:41:59.539Z,700.55
2022-11-24T06:47:05.517Z,693.83
2022-11-24T06:49:37.094Z,699.97
2022-11-24T06:52:08.422Z,701.63
2022-11-24T06:57:10.916Z,700.45
2022-11-24T06:59:42.948Z,702.13
2022-11-24T07:02:17.055Z,685.45
2022-11-24T07:04:48.815Z,710.47
2022-11-24T07:07:20.425Z,709.78
2022-11-24T07:09:52.171Z,708.72
2022-11-24T07:12:24.568Z,656.63
2022-11-24T07:14:58.768Z,708.30
2022-11-24T07:17:32.778Z,701.13
2022-11-24T07:20:04.562Z,698.15
2022-11-24T07:22:35.934Z,722.28
2022-11-24T07:25:09.964Z,717.25
2022-11-24T14:20:55.621Z,522.95
2022-11-24T14:23:27.710Z,555.60
2022-11-24T14:25:59.305Z,545.00
2022-11-24T14:28:33.007Z,529.45
2022-11-24T14:31:23.812Z,535.10
2022-11-24T14:34:21.324Z,520.30
2022-11-24T14:36:56.933Z,519.78
2022-11-24T14:39:30.421Z,527.17
2022-11-24T14:42:06.234Z,523.92
2022-11-24T14:44:48.417Z,529.58
2022-11-24T14:50:12.472Z,508.15
2022-11-24T14:52:57.701Z,525.33
2022-11-24T14:55:31.636Z,514.97
2022-11-24T14:58:03.166Z,510.83
2022-11-24T15:00:36.446Z,511.95
2022-11-24T15:03:20.192Z,519.85
2022-11-24T15:05:58.680Z,524.70
2022-11-24T15:08:38.835Z,523.20
2022-11-24T15:11:10.905Z,515.83
2022-11-24T15:13:42.812Z,520.72
2022-11-24T15:16:21.027Z,531.63
2022-11-24T15:19:00.288Z,524.35
2022-11-24T15:21:36.480Z,520.30
2022-11-24T15:24:19.347Z,516.88
2022-11-24T15:26:50.972Z,524.70
2022-11-24T15:29:22.540Z,520.58
2022-11-24T15:31:54.730Z,525.67
2022-11-24T15:34:26.019Z,527.40
2022-11-24T15:36:58.803Z,520.58
2022-11-24T15:39:32.554Z,522.97
2022-11-24T15:42:04.230Z,528.05
2022-11-24T15:44:35.854Z,519.83
2022-11-24T15:47:07.911Z,519.38
2022-11-24T15:49:39.219Z,527.05
2022-11-24T15:52:11.339Z,529.05
2022-11-24T15:54:45.151Z,524.00
2022-11-24T15:57:16.732Z,513.72
2022-11-24T15:59:48.018Z,532.03
2022-11-24T16:02:19.699Z,520.05
2022-11-24T16:04:51.453Z,520.05
2022-11-24T16:07:23.122Z,523.40
2022-11-24T16:09:57.123Z,506.90
2022-11-24T16:12:28.664Z,526.42
2022-11-24T16:14:59.840Z,527.03
2022-11-24T16:17:31.482Z,523.90
2022-11-24T16:20:02.700Z,529.40
2022-11-24T16:22:34.260Z,516.90
2022-11-24T16:25:08.726Z,526.95
2022-11-24T16:27:40.723Z,524.85
2022-11-24T16:32:43.768Z,516.25
2022-11-24T16:35:15.124Z,516.75
2022-11-24T16:40:21.079Z,521.08
2022-11-24T16:42:53.273Z,516.28
2022-11-24T16:45:24.685Z,529.33
2022-11-24T16:47:56.467Z,524.65
2022-11-24T16:50:27.773Z,527.47
2022-11-24T16:55:33.154Z,516.50
2022-11-24T16:58:07.414Z,506.17
2022-11-24T17:00:38.896Z,524.50
2022-11-24T17:03:10.566Z,525.78
2022-11-24T17:05:41.916Z,525.70
2022-11-24T17:08:13.567Z,522.47
2022-11-24T17:10:47.511Z,527.58
2022-11-24T17:13:19.287Z,536.15
2022-11-24T17:15:54.113Z,527.00
2022-11-24T17:18:26.410Z,518.47
2022-11-24T17:21:04.635Z,523.55
2022-11-24T17:23:41.431Z,530.63
2022-11-24T17:26:17.478Z,523.30
2022-11-24T17:28:49.364Z,512.60
2022-11-24T17:31:24.197Z,521.83
2022-11-24T17:33:57.382Z,509.42
2022-11-24T17:36:29.726Z,529.67
2022-11-24T17:39:04.615Z,518.60
2022-11-24T17:41:38.779Z,521.10
2022-11-24T17:44:12.336Z,525.95
2022-11-24T17:46:43.649Z,526.00
2022-11-24T17:51:50.646Z,522.15
2022-11-24T17:57:16.750Z,523.58
2022-11-24T17:59:48.428Z,525.08
2022-11-24T18:02:19.745Z,521.60
2022-11-24T18:07:22.332Z,512.33
2022-11-24T18:12:27.389Z,517.10
2022-11-24T18:14:59.154Z,514.70
2022-11-24T18:17:31.254Z,515.15
2022-11-24T18:20:03.040Z,513.38
2022-11-24T18:23:04.090Z,512.75
2022-11-24T18:25:25.975Z,514.05
2022-11-24T18:28:00.320Z,523.88
2022-11-24T18:30:31.967Z,522.70
2022-11-24T18:33:03.180Z,526.63
2022-11-24T18:35:35.420Z,526.70
2022-11-24T18:38:06.714Z,509.88
2022-11-24T18:40:41.997Z,524.45
2022-11-24T18:43:15.847Z,522.92
2022-11-24T18:45:47.758Z,531.80
2022-11-24T18:48:19.384Z,527.75
2022-11-24T18:50:54.554Z,527.47
2022-11-24T18:53:28.082Z,518.33
2022-11-24T18:56:04.318Z,514.42
2022-11-24T18:58:38.915Z,520.70
2022-11-24T19:01:12.238Z,520.13
2022-11-24T19:03:48.716Z,510.20
2022-11-24T19:06:24.050Z,521.72
2022-11-24T19:08:57.182Z,509.65
2022-11-24T19:11:32.525Z,514.92
2022-11-24T19:14:07.888Z,516.08
2022-11-24T19:16:40.703Z,513.05
2022-11-24T19:19:13.281Z,516.90
2022-11-24T19:21:45.145Z,521.03
2022-11-24T19:24:16.525Z,512.03
2022-11-24T19:29:22.758Z,518.53
2022-11-24T19:31:56.684Z,507.33
2022-11-24T19:34:27.954Z,511.30
2022-11-24T19:39:30.631Z,508.83
2022-11-24T19:42:02.369Z,511.95
2022-11-24T19:44:36.477Z,502.25
2022-11-24T19:47:08.231Z,520.25
2022-11-24T19:49:39.537Z,518.42
2022-11-24T19:52:11.117Z,523.85
2022-11-24T19:54:42.288Z,526.80
2022-11-24T19:57:13.856Z,520.85
2022-11-24T19:59:47.727Z,522.35
2022-11-24T20:02:19.520Z,517.03
2022-11-24T20:04:50.861Z,520.42
2022-11-24T20:07:22.630Z,521.33
2022-11-24T20:09:54.007Z,513.63
2022-11-24T20:14:59.202Z,504.30
2022-11-24T20:17:33.066Z,511.98
2022-11-24T20:20:04.243Z,512.53
2022-11-24T20:22:35.772Z,512.95
2022-11-24T20:25:08.226Z,520.13
2022-11-24T20:27:39.827Z,522.13
2022-11-24T20:30:14.449Z,523.83
2022-11-24T20:32:46.144Z,520.63
2022-11-24T20:35:18.434Z,513.80
2022-11-24T20:40:35.964Z,527.08
2022-11-24T20:45:42.473Z,500.42
2022-11-24T20:48:14.147Z,513.78
2022-11-24T20:50:50.999Z,524.08
2022-11-24T20:53:23.124Z,518.80
2022-11-24T20:55:54.364Z,520.00
2022-11-24T20:58:25.924Z,506.30
2022-11-24T21:01:06.693Z,525.75
2022-11-24T21:03:43.071Z,515.60
2022-11-24T21:06:15.480Z,499.70
2022-11-24T21:08:47.040Z,518.63
2022-11-24T21:11:18.814Z,509.00
2022-11-24T21:13:51.621Z,513.72
2022-11-24T21:16:27.942Z,518.92
2022-11-24T21:19:01.364Z,519.30
2022-11-24T21:21:36.189Z,513.22
2022-11-24T21:24:10.078Z,517.35
2022-11-24T21:26:42.677Z,516.50
2022-11-24T21:29:17.329Z,515.47
2022-11-24T21:31:51.462Z,515.70
2022-11-24T21:34:23.301Z,521.38
2022-11-24T21:39:26.050Z,512.70
2022-11-24T21:41:57.246Z,507.05
2022-11-24T21:44:31.110Z,514.58
2022-11-24T21:47:04.909Z,512.15
2022-11-24T21:49:36.461Z,522.38
2022-11-24T21:52:08.021Z,517.10
2022-11-24T21:54:39.537Z,513.70
2022-11-24T21:57:10.722Z,505.33
2022-11-24T21:59:42.265Z,516.88
2022-11-24T22:02:16.764Z,509.55
2022-11-24T22:04:48.281Z,517.95
2022-11-24T22:07:19.519Z,498.17
2022-11-24T22:12:21.761Z,493.33
2022-11-24T22:14:53.403Z,511.50
2022-11-24T22:17:27.169Z,495.63
2022-11-24T22:19:58.742Z,508.67
2022-11-24T22:22:30.015Z,516.03
2022-11-24T22:25:01.553Z,518.30
2022-11-24T22:27:32.743Z,519.90
2022-11-24T22:30:06.190Z,524.20
2022-11-24T22:32:39.995Z,508.65
2022-11-24T22:35:12.210Z,524.45
2022-11-24T22:37:43.453Z,509.33
2022-11-24T22:42:46.290Z,498.45
2022-11-24T22:45:17.801Z,507.02
2022-11-24T22:47:51.479Z,498.42
2022-11-24T22:50:23.094Z,514.45
2022-11-24T22:52:54.268Z,493.25
2022-11-24T22:55:26.251Z,522.88
2022-11-24T23:00:28.975Z,500.23
2022-11-24T23:03:03.148Z,505.98
2022-11-24T23:05:36.065Z,499.83
2022-11-24T23:08:07.944Z,497.30
2022-11-24T23:10:39.525Z,517.22
2022-11-24T23:13:10.796Z,513.47
2022-11-24T23:15:42.322Z,514.03
2022-11-24T23:18:16.421Z,515.88
2022-11-24T23:20:47.979Z,517.50
2022-11-24T23:23:19.263Z,516.80
2022-11-24T23:25:50.888Z,509.50
2022-11-24T23:28:22.185Z,516.72
2022-11-24T23:30:53.811Z,508.58
2022-11-24T23:33:27.601Z,512.28
2022-11-24T23:35:59.318Z,506.00
2022-11-24T23:38:32.920Z,517.20
2022-11-24T23:41:07.202Z,525.20
2022-11-24T23:43:39.266Z,504.17
2022-11-24T23:46:12.716Z,504.40
2022-11-24T23:48:47.229Z,514.55
2022-11-24T23:51:20.975Z,518.08
2022-11-24T23:56:38.771Z,523.25
2022-11-24T23:59:12.935Z,515.45
